Hauptseite
METAR-TAF:

METAR-TAF

Flughäfen :

Barcelona, Spanien

Flughafen Barcelona-El Prat

Breite: 41-17N, Länge: 002-04E, Höhe: 4 m

Beobachtung

Neuester Wetterbericht von vor 24 Minuten, um 09:30 UTC
Wind 9 kt aus Ost
Temperatur 21°C
Luftfeuchtigkeit 46%
Luftdruck 1025 hPa
Sichtweite 10 km oder mehr
keine Wolken unter 1500 m und keine Kumulonimbus oder Gewitterwolken

METAR: LEBL 190930Z 08009KT CAVOK 21/09 Q1025 NOSIG

Zeit: 11:54 (09:54 UTC)

Prognose

Neuester Wetterbericht von vor 4 Stunden und 54 Minuten, um 05:00 UTC
Gültige Prognose vom 19 um 06 UTC bis 20 um 06 UTC
Wind 5 kt aus Nord
Sichtweite 10 km oder mehr
Leicht bewölkt in der Höhe von 4000 ft
Übergehend zu
vom 19 um 08 UTC bis 19 um 11 UTC
Wind 10 kt aus Ost
Übergehend zu
vom 19 um 18 UTC bis 19 um 20 UTC
Wind 4 kt aus Nord/Nordost

TAF: LEBL 190500Z 1906/2006 35005KT 9999 FEW040 TX20/1912Z TN14/1906Z BECMG 1908/1911 09010KT BECMG 1918/1920 03004KT

Wetterbeobachtungen und Prognosen von mehr als 4000 Flughäfen (METAR und TAF Bericht).

Die verfügbaren Stationen werden durch gelbe und rote Markierungen auf der Karte dargestellt.

Führen Sie die Maus auf sie, um den Namen der Station zu sehen.

Darauf klicken, um die Beobachtung von Wetterbeobachtungen und Prognosen zu sehen.

Um die Karte zu ändern : klicken Sie auf den grünen Tasten mit einem schwarzen Kreuz Zum Vergrößern, auf den grünen Button mit einem Gedankenstrich zu verkleinern, oder auf die grünen Pfeile für benachbarte Karten.


METAR-TAF: